createdAt,value
2023-03-16T00:02:10.303Z,100435.72
2023-03-16T00:04:38.290Z,100442.91
2023-03-16T00:07:07.040Z,100447.28
2023-03-16T00:09:34.126Z,100448.34
2023-03-16T00:12:04.738Z,100457.56
2023-03-16T00:14:32.646Z,100454.63
2023-03-16T00:16:59.667Z,100461.00
2023-03-16T00:19:26.495Z,100469.59
2023-03-16T00:21:53.699Z,100458.66
2023-03-16T00:24:20.646Z,100471.38
2023-03-16T00:26:48.552Z,100469.63
2023-03-16T00:29:15.439Z,100475.47
2023-03-16T00:31:45.561Z,100473.00
2023-03-16T00:34:12.667Z,100471.22
2023-03-16T00:36:39.527Z,100475.50
2023-03-16T00:39:07.078Z,100474.94
2023-03-16T00:41:38.186Z,100477.88
2023-03-16T00:44:06.465Z,100467.41
2023-03-16T00:46:34.435Z,100472.41
2023-03-16T00:49:02.906Z,100476.50
2023-03-16T00:51:33.751Z,100473.63
2023-03-16T00:54:00.521Z,100476.75
2023-03-16T00:56:27.342Z,100483.06
2023-03-16T00:58:57.940Z,100471.28
2023-03-16T01:01:25.270Z,100474.00
2023-03-16T01:03:52.125Z,100474.09
2023-03-16T01:06:20.786Z,100472.94
2023-03-16T01:08:48.145Z,100481.91
2023-03-16T01:11:18.643Z,100494.56
2023-03-16T01:13:49.850Z,100499.53
2023-03-16T01:16:19.186Z,100500.88
2023-03-16T01:18:49.937Z,100503.47
2023-03-16T01:21:16.814Z,100504.91
2023-03-16T01:23:44.458Z,100504.66
2023-03-16T01:26:12.656Z,100501.13
2023-03-16T01:28:39.456Z,100502.69
2023-03-16T01:31:10.425Z,100496.13
2023-03-16T01:33:38.106Z,100498.16
2023-03-16T01:36:15.220Z,100494.69
2023-03-16T01:38:51.580Z,100492.84
2023-03-16T01:41:18.828Z,100486.66
2023-03-16T01:43:46.302Z,100483.91
2023-03-16T01:46:18.471Z,100485.19
2023-03-16T01:49:01.588Z,100482.28
2023-03-16T01:51:42.242Z,100484.03
2023-03-16T01:54:22.100Z,100478.78
2023-03-16T01:57:07.049Z,100484.00
2023-03-16T01:59:40.194Z,100485.41
2023-03-16T02:02:09.184Z,100487.25
2023-03-16T02:04:37.160Z,100484.88
2023-03-16T02:07:07.910Z,100483.47
2023-03-16T02:09:46.619Z,100486.03
2023-03-16T02:12:18.127Z,100483.94
2023-03-16T02:14:50.485Z,100489.16
2023-03-16T02:17:21.704Z,100496.31
2023-03-16T02:20:16.802Z,100490.88
2023-03-16T02:22:48.995Z,100497.09
2023-03-16T02:25:18.830Z,100496.72
2023-03-16T02:28:00.952Z,100496.00
2023-03-16T02:30:28.587Z,100496.19
2023-03-16T02:32:59.516Z,100495.31
2023-03-16T02:35:26.478Z,100497.13
2023-03-16T02:37:53.597Z,100496.44
2023-03-16T02:40:43.953Z,100497.97
2023-03-16T02:43:16.925Z,100503.88
2023-03-16T02:45:53.725Z,100507.75
2023-03-16T02:48:37.450Z,100519.50
2023-03-16T02:51:06.546Z,100511.81
2023-03-16T02:53:33.410Z,100521.00
2023-03-16T02:56:03.028Z,100517.38
2023-03-16T02:58:32.851Z,100525.63
2023-03-16T03:01:02.134Z,100528.88
2023-03-16T03:03:29.253Z,100536.00
2023-03-16T03:05:56.242Z,100536.09
2023-03-16T03:08:23.670Z,100528.88
2023-03-16T03:10:51.520Z,100534.06
2023-03-16T03:13:19.020Z,100535.75
2023-03-16T03:15:45.857Z,100534.66
2023-03-16T03:18:14.712Z,100528.16
2023-03-16T03:20:41.760Z,100538.91
2023-03-16T03:23:10.186Z,100534.09
2023-03-16T03:25:37.010Z,100545.16
2023-03-16T03:28:08.494Z,100541.81
2023-03-16T03:30:35.879Z,100546.44
2023-03-16T03:33:03.877Z,100550.41
2023-03-16T03:35:31.839Z,100548.31
2023-03-16T03:37:58.939Z,100555.91
2023-03-16T03:40:26.670Z,100555.06
2023-03-16T03:42:58.351Z,100562.59
2023-03-16T03:45:25.709Z,100569.41
2023-03-16T03:47:52.503Z,100564.06
2023-03-16T03:50:21.577Z,100566.75
2023-03-16T03:53:08.700Z,100570.97
2023-03-16T03:55:49.960Z,100572.97
2023-03-16T03:58:16.863Z,100579.72
2023-03-16T04:00:43.896Z,100579.38
2023-03-16T04:03:10.937Z,100582.13
2023-03-16T04:05:43.757Z,100581.31
2023-03-16T04:08:11.837Z,100592.38
2023-03-16T04:10:39.393Z,100597.13
2023-03-16T04:13:06.302Z,100589.53
2023-03-16T04:15:35.326Z,100594.16
2023-03-16T04:18:08.701Z,100601.47
2023-03-16T04:20:36.491Z,100607.13
2023-03-16T04:23:03.508Z,100608.25
2023-03-16T04:25:31.525Z,100598.66
2023-03-16T04:27:59.197Z,100606.28
2023-03-16T04:30:31.068Z,100612.53
2023-03-16T04:33:09.972Z,100615.47
2023-03-16T04:35:36.918Z,100632.59
2023-03-16T04:38:03.721Z,100628.03
2023-03-16T04:40:39.507Z,100637.63
2023-03-16T04:43:13.729Z,100640.72
2023-03-16T04:45:42.188Z,100637.91
2023-03-16T04:48:10.289Z,100639.47
2023-03-16T04:50:37.978Z,100645.47
2023-03-16T04:53:05.200Z,100651.44
2023-03-16T04:55:32.908Z,100653.84
2023-03-16T04:58:00.111Z,100654.97
2023-03-16T05:00:32.188Z,100651.31
2023-03-16T05:03:04.498Z,100661.22
2023-03-16T05:05:31.638Z,100665.81
2023-03-16T05:07:58.537Z,100673.22
2023-03-16T05:10:28.291Z,100673.50
2023-03-16T05:12:56.229Z,100679.34
2023-03-16T05:15:23.207Z,100677.81
2023-03-16T05:17:59.591Z,100681.84
2023-03-16T05:20:26.392Z,100683.94
2023-03-16T05:22:57.401Z,100682.13
2023-03-16T05:25:27.716Z,100684.78
2023-03-16T05:27:57.702Z,100696.06
2023-03-16T05:30:45.385Z,100692.00
2023-03-16T05:33:16.638Z,100689.25
2023-03-16T05:35:46.800Z,100699.13
2023-03-16T05:38:15.927Z,100702.75
2023-03-16T05:40:44.076Z,100700.81
2023-03-16T05:43:20.524Z,100712.00
2023-03-16T05:45:50.556Z,100711.41
2023-03-16T05:48:18.759Z,100714.06
2023-03-16T05:50:50.925Z,100724.66
2023-03-16T05:53:21.102Z,100727.31
2023-03-16T05:55:53.820Z,100731.19
2023-03-16T05:58:21.423Z,100739.97
2023-03-16T06:00:50.562Z,100740.38
2023-03-16T06:03:28.609Z,100742.81
2023-03-16T06:05:57.725Z,100744.91
2023-03-16T06:08:30.474Z,100743.47
2023-03-16T06:11:05.944Z,100750.88
2023-03-16T06:13:32.864Z,100749.28
2023-03-16T06:15:59.868Z,100761.53
2023-03-16T06:18:27.259Z,100764.63
2023-03-16T06:20:54.062Z,100764.16
2023-03-16T06:23:21.951Z,100770.31
2023-03-16T06:25:50.624Z,100761.13
2023-03-16T06:28:21.288Z,100765.63
2023-03-16T06:30:48.239Z,100770.78
2023-03-16T06:33:15.013Z,100765.22
2023-03-16T06:35:41.997Z,100775.94
2023-03-16T06:38:18.536Z,100778.59
2023-03-16T06:41:08.349Z,100767.19
2023-03-16T06:43:36.042Z,100773.78
2023-03-16T06:46:03.752Z,100778.25
2023-03-16T06:48:30.810Z,100781.31
2023-03-16T06:50:57.948Z,100769.13
2023-03-16T06:53:27.748Z,100777.56
2023-03-16T06:55:56.103Z,100782.22
2023-03-16T06:58:26.146Z,100786.13
2023-03-16T07:00:54.153Z,100790.97
2023-03-16T07:03:21.765Z,100790.84
2023-03-16T07:05:54.757Z,100793.56
2023-03-16T07:08:21.958Z,100796.88
2023-03-16T07:10:50.919Z,100800.03
2023-03-16T07:13:18.267Z,100798.03
2023-03-16T07:15:45.203Z,100805.19
2023-03-16T07:18:14.878Z,100802.53
2023-03-16T07:20:42.500Z,100805.53
2023-03-16T07:23:09.321Z,100798.09
2023-03-16T07:25:36.137Z,100791.97
2023-03-16T07:28:04.345Z,100797.16
2023-03-16T07:30:36.924Z,100792.63
2023-03-16T07:33:05.585Z,100792.16
2023-03-16T07:35:33.454Z,100796.16
2023-03-16T07:38:01.637Z,100808.28
2023-03-16T07:40:28.828Z,100803.44
2023-03-16T07:43:04.414Z,100807.19
2023-03-16T07:45:36.085Z,100804.50
2023-03-16T07:48:04.250Z,100803.50
2023-03-16T07:50:39.196Z,100788.34
2023-03-16T07:53:06.291Z,100788.16
2023-03-16T07:55:39.534Z,100788.34
2023-03-16T07:58:08.161Z,100786.50
2023-03-16T08:00:39.172Z,100798.22
2023-03-16T08:03:06.436Z,100789.69
2023-03-16T08:05:35.353Z,100784.22
2023-03-16T08:08:09.775Z,100794.88
2023-03-16T08:10:39.292Z,100802.38
2023-03-16T08:13:16.001Z,100801.19
2023-03-16T08:16:02.447Z,100797.69
2023-03-16T08:18:35.488Z,100791.22
2023-03-16T08:21:03.334Z,100794.84
2023-03-16T08:23:33.742Z,100795.88
2023-03-16T08:26:01.757Z,100800.03
2023-03-16T08:28:28.974Z,100799.13
2023-03-16T08:30:58.705Z,100804.00
2023-03-16T08:33:46.950Z,100806.19
2023-03-16T08:36:17.343Z,100814.41
2023-03-16T08:39:00.068Z,100820.56
2023-03-16T08:41:30.936Z,100812.06
2023-03-16T08:44:03.427Z,100810.50
2023-03-16T08:46:31.074Z,100800.34
2023-03-16T08:48:59.460Z,100809.59
2023-03-16T08:51:27.524Z,100815.47
2023-03-16T08:53:54.684Z,100803.41
2023-03-16T08:56:21.798Z,100806.53
2023-03-16T08:58:52.356Z,100799.34
2023-03-16T09:01:19.828Z,100805.72
2023-03-16T09:03:51.502Z,100815.63
2023-03-16T09:06:18.897Z,100834.16
2023-03-16T09:08:46.260Z,100816.69
2023-03-16T09:11:16.055Z,100823.34
2023-03-16T09:13:47.522Z,100811.84
2023-03-16T09:16:16.367Z,100823.84
2023-03-16T09:18:44.136Z,100801.59
2023-03-16T09:21:13.988Z,100806.38
2023-03-16T09:23:43.052Z,100793.47
2023-03-16T09:26:12.666Z,100803.66
2023-03-16T09:28:42.333Z,100812.75
2023-03-16T09:31:15.580Z,100813.88
2023-03-16T09:33:42.953Z,100813.84
2023-03-16T09:36:11.676Z,100804.84
2023-03-16T09:38:38.757Z,100808.84
2023-03-16T09:41:18.505Z,100815.56
2023-03-16T09:44:10.706Z,100819.69
2023-03-16T09:46:43.767Z,100812.63
2023-03-16T09:49:14.272Z,100812.03
2023-03-16T09:52:06.384Z,100820.41
2023-03-16T09:54:43.127Z,100803.19
2023-03-16T09:57:26.160Z,100813.38
2023-03-16T09:59:53.425Z,100816.78
2023-03-16T10:02:23.248Z,100812.25
2023-03-16T10:04:58.726Z,100796.34
2023-03-16T10:08:14.271Z,100807.25
2023-03-16T10:11:05.632Z,100818.66
2023-03-16T10:13:51.587Z,100827.19
2023-03-16T10:16:20.635Z,100821.41
2023-03-16T10:18:52.486Z,100817.84
2023-03-16T10:21:21.236Z,100826.91
2023-03-16T10:23:49.530Z,100815.16
2023-03-16T10:26:24.074Z,100823.91
2023-03-16T10:28:51.364Z,100809.13
2023-03-16T10:31:21.855Z,100817.13
2023-03-16T10:33:53.488Z,100811.22
2023-03-16T10:36:34.740Z,100821.84
2023-03-16T10:39:09.406Z,100826.72
2023-03-16T10:41:43.418Z,100810.00
2023-03-16T10:44:15.798Z,100811.09
2023-03-16T10:47:00.708Z,100808.06
2023-03-16T10:49:39.563Z,100805.50
2023-03-16T10:52:34.861Z,100804.50
2023-03-16T10:55:11.197Z,100812.53
2023-03-16T10:57:42.759Z,100798.19
2023-03-16T11:00:21.442Z,100812.28
2023-03-16T11:02:49.846Z,100807.78
2023-03-16T11:05:19.304Z,100823.31
2023-03-16T11:08:10.821Z,100819.81
2023-03-16T11:10:54.681Z,100821.47
2023-03-16T11:13:26.453Z,100823.94
2023-03-16T11:16:00.625Z,100821.25
2023-03-16T11:18:32.529Z,100816.09
2023-03-16T11:21:39.931Z,100815.06
2023-03-16T11:24:19.313Z,100806.44
2023-03-16T11:26:54.398Z,100806.53
2023-03-16T11:29:32.975Z,100816.63
2023-03-16T11:32:29.576Z,100810.16
2023-03-16T11:34:56.672Z,100817.00
2023-03-16T11:37:29.286Z,100819.22
2023-03-16T11:40:17.723Z,100818.09
2023-03-16T11:43:03.637Z,100816.72
2023-03-16T11:46:05.583Z,100812.56
2023-03-16T11:48:46.459Z,100816.91
2023-03-16T11:51:38.818Z,100806.09
2023-03-16T11:54:31.467Z,100803.97
2023-03-16T11:57:05.683Z,100793.13
2023-03-16T11:59:32.649Z,100796.19
2023-03-16T12:02:16.318Z,100792.25
2023-03-16T12:05:18.183Z,100774.34
2023-03-16T12:08:04.599Z,100777.03
2023-03-16T12:10:42.008Z,100777.94
2023-03-16T12:13:36.145Z,100779.41
2023-03-16T12:16:11.053Z,100769.78
2023-03-16T12:19:07.103Z,100769.41
2023-03-16T12:21:39.865Z,100766.16
2023-03-16T12:24:18.746Z,100766.06
2023-03-16T12:26:46.337Z,100754.81
2023-03-16T12:29:21.209Z,100754.34
2023-03-16T12:31:59.362Z,100757.09
2023-03-16T12:34:32.947Z,100760.81
2023-03-16T12:37:36.589Z,100757.22
2023-03-16T12:40:15.874Z,100757.00
2023-03-16T12:43:18.670Z,100754.22
2023-03-16T12:45:57.782Z,100760.09
2023-03-16T12:48:45.229Z,100760.94
2023-03-16T12:51:14.424Z,100758.56
2023-03-16T12:53:55.104Z,100767.66
2023-03-16T12:56:37.573Z,100769.69
2023-03-16T12:59:07.760Z,100757.44
2023-03-16T13:01:38.542Z,100753.81
2023-03-16T13:04:16.375Z,100753.41
2023-03-16T13:06:47.632Z,100750.56
2023-03-16T13:09:20.270Z,100753.88
2023-03-16T13:11:53.491Z,100751.91
2023-03-16T13:14:40.754Z,100741.22
2023-03-16T13:17:28.040Z,100740.69
2023-03-16T13:20:30.281Z,100745.22
2023-03-16T13:23:30.695Z,100742.31
2023-03-16T13:26:00.416Z,100742.06
2023-03-16T13:28:31.799Z,100733.69
2023-03-16T13:31:00.466Z,100735.94
2023-03-16T13:33:31.554Z,100731.81
2023-03-16T13:36:00.579Z,100730.16
2023-03-16T13:38:31.536Z,100727.56
2023-03-16T13:41:10.418Z,100735.66
2023-03-16T13:43:44.432Z,100729.78
2023-03-16T13:46:19.522Z,100732.00
2023-03-16T13:48:50.524Z,100729.66
2023-03-16T13:51:23.046Z,100722.63
2023-03-16T13:53:51.096Z,100722.03
2023-03-16T13:56:40.501Z,100716.66
2023-03-16T13:59:10.729Z,100720.00
2023-03-16T14:01:37.930Z,100720.91
2023-03-16T14:04:14.327Z,100720.22
2023-03-16T14:06:43.979Z,100715.44
2023-03-16T14:09:18.228Z,100719.03
2023-03-16T14:11:48.743Z,100712.44
2023-03-16T14:14:17.280Z,100724.25
2023-03-16T14:16:44.790Z,100715.34
2023-03-16T14:19:14.266Z,100716.59
2023-03-16T14:21:45.974Z,100718.38
2023-03-16T14:24:31.014Z,100716.41
2023-03-16T14:27:08.947Z,100720.03
2023-03-16T14:29:35.864Z,100712.59
2023-03-16T14:32:03.413Z,100720.50
2023-03-16T14:34:41.436Z,100721.13
2023-03-16T14:37:13.855Z,100720.78
2023-03-16T14:39:41.426Z,100722.19
2023-03-16T14:42:19.046Z,100717.22
2023-03-16T14:44:46.646Z,100723.66
2023-03-16T14:47:25.552Z,100724.94
2023-03-16T14:49:53.480Z,100724.94
2023-03-16T14:52:27.417Z,100726.44
2023-03-16T14:54:55.477Z,100718.44
2023-03-16T14:57:22.936Z,100722.97
2023-03-16T14:59:49.880Z,100723.59
2023-03-16T15:02:30.827Z,100720.91
2023-03-16T15:04:59.533Z,100727.97
2023-03-16T15:07:33.776Z,100727.63
2023-03-16T15:10:07.460Z,100724.88
2023-03-16T15:12:38.083Z,100729.22
2023-03-16T15:15:20.167Z,100729.72
2023-03-16T15:17:47.497Z,100724.34
2023-03-16T15:20:36.051Z,100718.94
2023-03-16T15:23:05.149Z,100717.84
2023-03-16T15:25:40.000Z,100730.84
2023-03-16T15:28:17.675Z,100727.91
2023-03-16T15:30:49.780Z,100732.84
2023-03-16T15:33:17.350Z,100733.19
2023-03-16T15:35:47.005Z,100739.38
2023-03-16T15:38:26.049Z,100744.34
2023-03-16T15:40:53.635Z,100736.13
2023-03-16T15:43:29.817Z,100738.34
2023-03-16T15:46:03.712Z,100748.72
2023-03-16T15:48:31.157Z,100750.50
2023-03-16T15:51:07.769Z,100743.84
2023-03-16T15:53:51.433Z,100747.38
2023-03-16T15:56:22.809Z,100762.25
2023-03-16T15:58:50.905Z,100752.22
2023-03-16T16:01:25.894Z,100749.28
2023-03-16T16:03:54.519Z,100747.69
2023-03-16T16:06:22.373Z,100756.59
2023-03-16T16:08:49.428Z,100760.41
2023-03-16T16:11:19.355Z,100765.53
2023-03-16T16:13:46.652Z,100770.91
2023-03-16T16:16:15.618Z,100774.22
2023-03-16T16:18:43.167Z,100772.84
2023-03-16T16:21:19.746Z,100778.44
2023-03-16T16:23:47.932Z,100769.91
2023-03-16T16:26:26.297Z,100775.66
2023-03-16T16:28:55.870Z,100788.38
2023-03-16T16:31:23.813Z,100784.66
2023-03-16T16:33:51.017Z,100789.09
2023-03-16T16:36:21.076Z,100784.91
2023-03-16T16:38:48.688Z,100780.16
2023-03-16T16:41:24.576Z,100788.34
2023-03-16T16:43:52.931Z,100785.78
2023-03-16T16:46:28.832Z,100781.94
2023-03-16T16:49:01.859Z,100790.53
2023-03-16T16:51:30.753Z,100801.34
2023-03-16T16:53:59.060Z,100796.00
2023-03-16T16:56:32.127Z,100814.69
2023-03-16T16:59:02.071Z,100812.09
2023-03-16T17:01:34.742Z,100812.66
2023-03-16T17:04:03.048Z,100819.97
2023-03-16T17:06:30.615Z,100822.53
2023-03-16T17:08:57.635Z,100830.59
2023-03-16T17:11:27.649Z,100824.31
2023-03-16T17:13:55.571Z,100825.22
2023-03-16T17:16:28.885Z,100828.66
2023-03-16T17:18:55.788Z,100838.59
2023-03-16T17:21:25.302Z,100836.81
2023-03-16T17:23:52.974Z,100828.69
2023-03-16T17:26:31.770Z,100836.94
2023-03-16T17:29:02.745Z,100829.69
2023-03-16T17:31:35.256Z,100841.28
2023-03-16T17:34:06.833Z,100834.06
2023-03-16T17:36:33.825Z,100840.97
2023-03-16T17:39:02.194Z,100839.72
2023-03-16T17:41:33.106Z,100842.91
2023-03-16T17:44:04.749Z,100848.41
2023-03-16T17:46:31.895Z,100848.06
2023-03-16T17:49:00.249Z,100847.09
2023-03-16T17:51:27.393Z,100856.28
2023-03-16T17:53:55.875Z,100862.66
2023-03-16T17:56:25.717Z,100857.09
2023-03-16T17:58:57.271Z,100861.31
2023-03-16T18:01:32.713Z,100863.41
2023-03-16T18:04:01.343Z,100866.88
2023-03-16T18:06:29.902Z,100871.06
2023-03-16T18:08:57.609Z,100872.78
2023-03-16T18:11:35.794Z,100875.44
2023-03-16T18:14:04.972Z,100887.31
2023-03-16T18:16:32.331Z,100896.06
2023-03-16T18:19:04.253Z,100891.78
2023-03-16T18:21:31.574Z,100896.94
2023-03-16T18:27:21.195Z,100902.09
2023-03-16T18:34:00.012Z,100903.69
2023-03-16T18:37:11.051Z,100922.75
2023-03-16T18:40:19.643Z,100913.22
2023-03-16T18:42:46.745Z,100922.59
2023-03-16T18:45:16.681Z,100932.63
2023-03-16T18:47:54.554Z,100924.78
2023-03-16T18:50:29.843Z,100930.09
2023-03-16T18:53:00.724Z,100927.09
2023-03-16T18:55:31.181Z,100929.94
2023-03-16T18:57:58.814Z,100927.41
2023-03-16T19:00:27.419Z,100929.25
2023-03-16T19:03:02.436Z,100938.59
2023-03-16T19:05:39.674Z,100928.25
2023-03-16T19:08:06.954Z,100928.22
2023-03-16T19:10:37.455Z,100929.56
2023-03-16T19:13:11.209Z,100928.84
2023-03-16T19:15:39.440Z,100929.50
2023-03-16T19:18:06.419Z,100923.81
2023-03-16T19:20:34.878Z,100916.03
2023-03-16T19:23:08.290Z,100923.25
2023-03-16T19:25:41.349Z,100917.25
2023-03-16T19:28:14.919Z,100929.03
2023-03-16T19:30:42.095Z,100937.16
2023-03-16T19:33:19.865Z,100943.63
2023-03-16T19:35:51.900Z,100939.78
2023-03-16T19:38:20.038Z,100937.75
2023-03-16T19:40:52.108Z,100946.50
2023-03-16T19:43:20.640Z,100934.50
2023-03-16T19:45:48.817Z,100939.81
2023-03-16T19:48:22.808Z,100944.19
2023-03-16T19:50:51.209Z,100945.00
2023-03-16T19:53:20.932Z,100950.00
2023-03-16T19:55:49.632Z,100950.97
2023-03-16T19:58:28.853Z,100956.28
2023-03-16T20:00:56.710Z,100951.78
2023-03-16T20:03:23.584Z,100956.09
2023-03-16T20:05:50.444Z,100955.59
2023-03-16T20:08:28.727Z,100953.94
2023-03-16T20:11:02.284Z,100967.56
2023-03-16T20:13:31.490Z,100966.94
2023-03-16T20:15:58.466Z,100967.38
2023-03-16T20:18:25.575Z,100964.63
2023-03-16T20:20:52.404Z,100958.44
2023-03-16T20:23:27.110Z,100958.72
2023-03-16T20:25:56.868Z,100966.84
2023-03-16T20:28:27.879Z,100965.28
2023-03-16T20:30:54.849Z,100964.69
2023-03-16T20:33:24.481Z,100965.06
2023-03-16T20:35:55.306Z,100973.88
2023-03-16T20:38:25.427Z,100969.34
2023-03-16T20:40:54.047Z,100974.72
2023-03-16T20:43:30.349Z,100970.59
2023-03-16T20:46:03.950Z,100982.16
2023-03-16T20:48:32.287Z,100989.19
2023-03-16T20:51:00.681Z,100990.53
2023-03-16T20:53:27.728Z,100993.50
2023-03-16T20:55:55.320Z,100995.78
2023-03-16T20:58:28.096Z,100992.75
2023-03-16T21:00:57.890Z,100998.97
2023-03-16T21:03:28.625Z,100999.81
2023-03-16T21:05:59.617Z,100991.00
2023-03-16T21:08:27.285Z,100988.56
2023-03-16T21:10:56.424Z,100987.56
2023-03-16T21:13:28.050Z,100994.50
2023-03-16T21:15:56.442Z,100994.88
2023-03-16T21:18:23.794Z,100998.22
2023-03-16T21:20:51.416Z,100998.19
2023-03-16T21:23:21.281Z,100990.97
2023-03-16T21:25:59.806Z,100990.16
2023-03-16T21:28:29.692Z,100986.88
2023-03-16T21:30:58.259Z,100991.91
2023-03-16T21:33:37.382Z,100994.41
2023-03-16T21:36:16.887Z,100999.09
2023-03-16T21:38:44.906Z,101000.16
2023-03-16T21:41:12.082Z,100991.41
2023-03-16T21:43:39.742Z,100992.94
2023-03-16T21:46:18.048Z,100990.66
2023-03-16T21:48:57.499Z,101000.19
2023-03-16T21:51:31.533Z,100998.19
2023-03-16T21:53:59.046Z,101010.50
2023-03-16T21:56:26.412Z,100991.03
2023-03-16T21:58:54.212Z,100990.34
2023-03-16T22:01:29.899Z,100998.50
2023-03-16T22:04:11.022Z,100990.38
2023-03-16T22:06:37.858Z,100992.97
2023-03-16T22:09:04.662Z,101000.28
2023-03-16T22:11:32.231Z,100997.69
2023-03-16T22:13:59.626Z,101003.28
2023-03-16T22:16:28.913Z,101005.72
2023-03-16T22:18:58.345Z,101000.00
2023-03-16T22:21:27.661Z,101001.75
2023-03-16T22:23:56.439Z,100999.38
2023-03-16T22:26:24.393Z,100998.03
2023-03-16T22:28:52.567Z,100991.38
2023-03-16T22:31:34.861Z,100996.72
2023-03-16T22:34:03.594Z,100991.00
2023-03-16T22:36:32.410Z,101001.44
2023-03-16T22:39:08.313Z,101006.19
2023-03-16T22:41:35.312Z,101007.13
2023-03-16T22:44:04.205Z,101014.09
2023-03-16T22:46:31.578Z,101012.44
2023-03-16T22:48:58.689Z,101015.09
2023-03-16T22:51:35.925Z,101010.44
2023-03-16T22:54:08.730Z,101010.78
2023-03-16T22:56:36.276Z,101008.53
2023-03-16T22:59:06.186Z,101012.19
2023-03-16T23:01:42.653Z,101015.16
2023-03-16T23:04:32.866Z,101016.13
2023-03-16T23:06:59.839Z,101012.69
2023-03-16T23:09:26.774Z,101021.53
2023-03-16T23:11:56.132Z,101018.44
2023-03-16T23:14:25.975Z,101022.91
2023-03-16T23:16:53.591Z,101020.97
2023-03-16T23:19:29.939Z,101020.72
2023-03-16T23:22:01.977Z,101017.44
2023-03-16T23:24:28.866Z,101017.38
2023-03-16T23:26:56.251Z,101013.59
2023-03-16T23:29:24.396Z,101011.06
2023-03-16T23:31:51.457Z,101010.41
2023-03-16T23:34:21.488Z,101007.13
2023-03-16T23:36:49.935Z,101003.94
2023-03-16T23:39:16.888Z,101006.38
2023-03-16T23:41:46.824Z,101015.09
2023-03-16T23:44:23.576Z,101015.22
2023-03-16T23:46:51.109Z,101017.75
2023-03-16T23:49:22.445Z,101017.47
2023-03-16T23:51:51.101Z,101003.38
2023-03-16T23:54:24.619Z,101010.09
2023-03-16T23:56:52.107Z,101018.34
2023-03-16T23:59:20.430Z,101014.38
